createdAt,value
2018-06-27T00:00:59.974Z,8.63
2018-06-27T00:03:33.644Z,20.97
2018-06-27T00:06:07.604Z,9.10
2018-06-27T00:08:41.259Z,4.50
2018-06-27T00:11:14.986Z,4.03
2018-06-27T00:13:48.089Z,9.17
2018-06-27T00:16:21.223Z,8.47
2018-06-27T00:18:54.383Z,3.90
2018-06-27T00:21:27.523Z,7.23
2018-06-27T00:24:00.685Z,5.00
2018-06-27T00:26:33.769Z,9.13
2018-06-27T00:29:06.943Z,3.57
2018-06-27T00:31:40.088Z,5.77
2018-06-27T00:34:13.192Z,6.03
2018-06-27T00:36:46.371Z,5.23
2018-06-27T00:39:19.480Z,8.50
2018-06-27T00:41:52.599Z,13.23
2018-06-27T00:44:25.615Z,9.13
2018-06-27T00:46:58.780Z,4.97
2018-06-27T00:49:31.877Z,7.73
2018-06-27T00:52:04.965Z,9.77
2018-06-27T00:54:38.052Z,13.20
2018-06-27T00:57:11.259Z,11.80
2018-06-27T00:59:44.321Z,7.33
2018-06-27T01:02:17.393Z,8.33
2018-06-27T01:04:50.620Z,13.20
2018-06-27T01:07:23.607Z,11.83
2018-06-27T01:09:56.777Z,13.73
2018-06-27T01:12:29.895Z,15.53
2018-06-27T01:15:03.831Z,12.63
2018-06-27T01:17:36.802Z,7.47
2018-06-27T01:20:10.187Z,14.70
2018-06-27T01:22:43.266Z,11.70
2018-06-27T01:25:16.303Z,10.23
2018-06-27T01:27:49.773Z,12.03
2018-06-27T01:30:22.833Z,8.90
2018-06-27T01:32:55.830Z,9.27
2018-06-27T01:35:28.925Z,15.03
2018-06-27T01:38:02.094Z,6.60
2018-06-27T01:40:35.150Z,7.37
2018-06-27T01:43:08.236Z,9.33
2018-06-27T01:45:41.274Z,3.33
2018-06-27T01:48:14.402Z,6.17
2018-06-27T01:50:47.729Z,9.93
2018-06-27T01:53:21.105Z,6.40
2018-06-27T01:55:54.553Z,10.80
2018-06-27T01:58:28.432Z,9.57
2018-06-27T02:01:02.050Z,11.70
2018-06-27T02:03:38.217Z,7.43
2018-06-27T02:06:12.014Z,15.53
2018-06-27T02:08:45.829Z,12.20
2018-06-27T02:11:19.540Z,14.57
2018-06-27T02:13:54.260Z,12.93
2018-06-27T02:16:28.001Z,9.93
2018-06-27T02:19:01.920Z,12.27
2018-06-27T02:21:35.308Z,13.40
2018-06-27T02:24:08.486Z,12.40
2018-06-27T02:26:41.724Z,10.43
2018-06-27T02:29:14.907Z,8.37
2018-06-27T02:31:48.098Z,6.70
2018-06-27T02:34:21.419Z,9.13
2018-06-27T02:36:54.527Z,8.10
2018-06-27T02:39:27.756Z,8.40
2018-06-27T02:42:00.874Z,9.13
2018-06-27T02:44:34.137Z,10.80
2018-06-27T02:47:07.297Z,14.43
2018-06-27T02:49:40.712Z,16.40
2018-06-27T02:52:14.541Z,13.67
2018-06-27T02:54:48.279Z,7.47
2018-06-27T02:57:26.322Z,9.23
2018-06-27T03:00:01.035Z,10.07
2018-06-27T03:02:39.367Z,11.30
2018-06-27T03:05:13.316Z,10.80
2018-06-27T03:07:47.582Z,13.87
2018-06-27T03:10:21.309Z,12.87
2018-06-27T03:12:55.042Z,13.23
2018-06-27T03:15:28.852Z,12.00
2018-06-27T03:18:02.721Z,12.93
2018-06-27T03:20:36.358Z,12.33
2018-06-27T03:23:09.686Z,10.00
2018-06-27T03:25:42.731Z,17.83
2018-06-27T03:28:15.850Z,19.00
2018-06-27T03:30:48.913Z,12.87
2018-06-27T03:33:22.105Z,15.93
2018-06-27T03:35:55.154Z,13.60
2018-06-27T03:38:28.235Z,8.00
2018-06-27T03:41:01.316Z,6.13
2018-06-27T03:43:34.483Z,6.57
2018-06-27T03:46:08.700Z,7.07
2018-06-27T03:48:41.731Z,10.20
2018-06-27T03:51:14.828Z,4.37
2018-06-27T03:53:51.971Z,5.13
2018-06-27T03:56:25.131Z,6.40
2018-06-27T03:58:58.314Z,16.23
2018-06-27T04:01:31.344Z,7.57
2018-06-27T04:04:04.572Z,6.93
2018-06-27T04:06:37.799Z,7.50
2018-06-27T04:09:14.223Z,6.00
2018-06-27T04:11:47.695Z,6.93
2018-06-27T04:14:20.787Z,10.33
2018-06-27T04:16:54.115Z,7.00
2018-06-27T04:19:27.681Z,5.37
2018-06-27T04:22:00.788Z,6.43
2018-06-27T04:24:34.468Z,5.50
2018-06-27T04:27:07.775Z,8.40
2018-06-27T04:29:40.853Z,5.17
2018-06-27T04:32:14.093Z,5.60
2018-06-27T04:34:47.428Z,5.80
2018-06-27T04:37:20.615Z,8.27
2018-06-27T04:39:53.776Z,5.57
2018-06-27T04:42:26.943Z,5.73
2018-06-27T04:45:00.179Z,4.70
2018-06-27T04:47:33.338Z,9.57
2018-06-27T04:50:06.554Z,7.37
2018-06-27T04:52:39.857Z,5.43
2018-06-27T04:55:12.971Z,5.00
2018-06-27T04:57:46.199Z,13.40
2018-06-27T05:00:19.350Z,8.57
2018-06-27T05:02:52.424Z,7.70
2018-06-27T05:05:25.588Z,13.50
2018-06-27T05:07:58.846Z,4.27
2018-06-27T05:10:32.158Z,7.40
2018-06-27T05:13:05.324Z,10.63
2018-06-27T05:15:38.602Z,4.73
2018-06-27T05:18:11.769Z,5.00
2018-06-27T05:20:44.963Z,4.10
2018-06-27T05:23:18.167Z,5.87
2018-06-27T05:25:51.191Z,6.03
2018-06-27T05:28:24.279Z,3.87
2018-06-27T05:30:58.115Z,3.63
2018-06-27T05:33:31.231Z,5.23
2018-06-27T05:36:04.449Z,3.47
2018-06-27T05:38:37.572Z,4.03
2018-06-27T05:41:10.640Z,3.17
2018-06-27T05:43:43.810Z,2.67
2018-06-27T05:46:16.923Z,2.73
2018-06-27T05:48:50.056Z,2.57
2018-06-27T05:51:23.254Z,2.90
2018-06-27T05:53:56.327Z,4.10
2018-06-27T05:56:29.470Z,6.47
2018-06-27T05:59:02.591Z,2.97
2018-06-27T06:01:36.202Z,3.90
2018-06-27T06:04:10.108Z,10.67
2018-06-27T06:06:43.494Z,9.17
2018-06-27T06:09:16.608Z,4.40
2018-06-27T06:11:49.778Z,2.67
2018-06-27T06:14:22.839Z,4.10
2018-06-27T06:16:55.815Z,3.43
2018-06-27T06:19:28.941Z,2.17
2018-06-27T06:22:02.096Z,2.03
2018-06-27T06:24:39.293Z,5.17
2018-06-27T06:27:12.886Z,1.97
2018-06-27T06:29:47.048Z,2.93
2018-06-27T06:32:20.870Z,2.10
2018-06-27T06:34:54.694Z,3.37
2018-06-27T06:37:27.932Z,6.03
2018-06-27T06:40:01.161Z,2.30
2018-06-27T06:42:34.369Z,5.97
2018-06-27T06:45:07.603Z,1.90
2018-06-27T06:47:40.702Z,3.67
2018-06-27T06:50:14.896Z,3.43
2018-06-27T06:52:47.993Z,3.10
2018-06-27T06:55:21.299Z,3.67
2018-06-27T06:57:55.215Z,2.67
2018-06-27T07:00:28.327Z,2.67
2018-06-27T07:03:02.316Z,2.87
2018-06-27T07:05:35.375Z,5.83
2018-06-27T07:08:09.866Z,2.20
2018-06-27T07:10:43.028Z,4.23
2018-06-27T07:13:16.132Z,3.20
2018-06-27T07:15:49.179Z,5.37
2018-06-27T07:18:22.327Z,3.17
2018-06-27T07:20:55.385Z,7.03
2018-06-27T07:23:28.557Z,8.67
2018-06-27T07:26:01.734Z,10.33
2018-06-27T07:28:34.773Z,6.13
2018-06-27T07:31:07.901Z,3.00
2018-06-27T07:33:40.955Z,8.27
2018-06-27T07:36:14.075Z,6.77
2018-06-27T07:38:54.941Z,3.70
2018-06-27T07:41:34.750Z,10.40
2018-06-27T07:44:07.920Z,3.40
2018-06-27T07:46:58.233Z,4.67
2018-06-27T07:49:44.749Z,5.97
2018-06-27T07:52:20.570Z,5.43
2018-06-27T07:54:53.675Z,5.90
2018-06-27T07:57:26.784Z,3.60
2018-06-27T08:00:00.117Z,10.33
2018-06-27T08:02:38.648Z,9.20
2018-06-27T08:05:11.780Z,3.63
2018-06-27T08:07:46.747Z,4.33
2018-06-27T08:10:24.467Z,8.10
2018-06-27T08:12:57.569Z,5.50
2018-06-27T08:15:45.488Z,3.43
2018-06-27T08:18:18.697Z,4.50
2018-06-27T08:20:53.915Z,4.90
2018-06-27T08:23:27.051Z,3.57
2018-06-27T08:26:01.012Z,3.77
2018-06-27T08:28:35.650Z,4.00
2018-06-27T08:31:11.116Z,11.83
2018-06-27T08:33:44.154Z,4.20
2018-06-27T08:36:17.303Z,3.93
2018-06-27T08:38:50.666Z,4.00
2018-06-27T08:41:22.301Z,5.03
2018-06-27T08:43:55.403Z,4.30
2018-06-27T08:46:29.460Z,3.83
2018-06-27T08:49:02.670Z,4.60
2018-06-27T08:51:35.627Z,4.70
2018-06-27T08:54:08.788Z,4.27
2018-06-27T08:56:41.858Z,4.53
2018-06-27T08:59:14.978Z,5.43
2018-06-27T09:01:48.687Z,5.93
2018-06-27T09:04:21.722Z,4.93
2018-06-27T09:06:56.092Z,10.53
2018-06-27T09:09:30.375Z,4.90
2018-06-27T09:12:14.160Z,5.23
2018-06-27T09:14:47.261Z,4.43
2018-06-27T09:17:20.380Z,5.40
2018-06-27T09:19:53.510Z,5.20
2018-06-27T09:22:27.527Z,4.23
2018-06-27T09:25:00.591Z,8.73
2018-06-27T09:27:33.624Z,6.30
2018-06-27T09:30:06.760Z,4.63
2018-06-27T09:32:40.195Z,16.90
2018-06-27T09:35:14.203Z,6.97
2018-06-27T09:37:47.411Z,11.53
2018-06-27T09:40:20.680Z,22.17
2018-06-27T09:42:53.892Z,35.40
2018-06-27T09:45:26.947Z,9.70
2018-06-27T09:48:00.147Z,4.00
2018-06-27T09:50:33.246Z,4.80
2018-06-27T09:53:06.845Z,3.50
2018-06-27T09:55:39.992Z,9.70
2018-06-27T09:58:13.135Z,3.13
2018-06-27T10:00:46.124Z,2.70
2018-06-27T10:03:19.356Z,3.33
2018-06-27T10:05:53.133Z,7.90
2018-06-27T10:08:26.353Z,10.63
2018-06-27T10:10:59.652Z,4.53
2018-06-27T10:13:33.595Z,10.33
2018-06-27T10:16:07.038Z,6.07
2018-06-27T10:18:40.426Z,3.80
2018-06-27T10:21:13.689Z,2.67
2018-06-27T10:23:46.952Z,4.50
2018-06-27T10:26:20.238Z,4.13
2018-06-27T10:28:53.694Z,4.70
2018-06-27T10:31:27.166Z,3.53
2018-06-27T10:34:00.473Z,19.00
2018-06-27T10:36:33.757Z,4.40
2018-06-27T10:39:07.328Z,3.80
2018-06-27T10:41:40.669Z,5.60
2018-06-27T10:44:13.739Z,5.53
2018-06-27T10:46:46.835Z,10.80
2018-06-27T10:49:20.036Z,3.90
2018-06-27T10:51:53.079Z,6.73
2018-06-27T10:54:26.304Z,2.90
2018-06-27T10:56:59.375Z,3.60
2018-06-27T10:59:32.659Z,3.23
2018-06-27T11:02:05.654Z,5.13
2018-06-27T11:04:41.412Z,3.10
2018-06-27T11:07:14.683Z,5.47
2018-06-27T11:09:47.767Z,19.63
2018-06-27T11:12:21.695Z,3.93
2018-06-27T11:14:55.345Z,7.70
2018-06-27T11:17:28.439Z,6.30
2018-06-27T11:20:02.123Z,3.10
2018-06-27T11:22:35.243Z,8.90
2018-06-27T11:25:08.304Z,9.93
2018-06-27T11:27:41.412Z,4.40
2018-06-27T11:30:14.534Z,9.27
2018-06-27T11:32:47.576Z,6.53
2018-06-27T11:35:20.668Z,6.27
2018-06-27T11:37:53.743Z,7.87
2018-06-27T11:40:26.861Z,7.90
2018-06-27T11:42:59.971Z,13.90
2018-06-27T11:45:33.848Z,7.60
2018-06-27T11:48:07.028Z,8.27
2018-06-27T11:50:40.080Z,5.77
2018-06-27T11:53:13.127Z,7.83
2018-06-27T11:55:46.247Z,13.50
2018-06-27T11:58:19.403Z,17.67
2018-06-27T12:00:57.671Z,6.30
2018-06-27T12:03:30.921Z,9.63
2018-06-27T12:06:04.005Z,11.97
2018-06-27T12:08:37.133Z,10.47
2018-06-27T12:11:10.176Z,15.30
2018-06-27T12:13:43.353Z,21.40
2018-06-27T12:16:16.746Z,14.17
2018-06-27T12:18:51.504Z,11.50
2018-06-27T12:21:24.691Z,11.00
2018-06-27T12:23:58.480Z,6.17
2018-06-27T12:26:31.671Z,13.60
2018-06-27T12:29:03.412Z,9.53
2018-06-27T12:31:36.536Z,9.03
2018-06-27T12:34:09.716Z,20.43
2018-06-27T12:36:42.868Z,13.13
2018-06-27T12:39:15.925Z,17.27
2018-06-27T12:41:49.001Z,19.43
2018-06-27T12:44:22.997Z,17.70
2018-06-27T12:46:57.162Z,20.40
2018-06-27T12:49:30.176Z,28.53
2018-06-27T12:52:03.261Z,9.67
2018-06-27T12:54:36.419Z,10.20
2018-06-27T12:57:09.513Z,8.37
2018-06-27T12:59:41.224Z,15.90
2018-06-27T13:02:14.378Z,10.57
2018-06-27T13:04:47.552Z,10.20
2018-06-27T13:07:20.738Z,10.87
2018-06-27T13:09:53.868Z,10.20
2018-06-27T13:12:27.214Z,14.20
2018-06-27T13:15:00.368Z,11.33
2018-06-27T13:17:33.338Z,24.30
2018-06-27T13:20:07.371Z,14.17
2018-06-27T13:22:40.385Z,20.27
2018-06-27T13:25:13.592Z,10.73
2018-06-27T13:27:46.719Z,14.67
2018-06-27T13:30:19.803Z,25.70
2018-06-27T13:32:53.143Z,11.40
2018-06-27T13:35:26.813Z,20.30
2018-06-27T13:38:00.092Z,19.93
2018-06-27T13:40:33.215Z,11.37
2018-06-27T13:43:06.372Z,16.07
2018-06-27T13:45:39.521Z,13.53
2018-06-27T13:48:13.229Z,16.80
2018-06-27T13:50:46.359Z,15.27
2018-06-27T13:53:19.506Z,16.80
2018-06-27T13:55:51.284Z,19.67
2018-06-27T13:58:24.731Z,13.77
2018-06-27T14:00:57.897Z,18.60
2018-06-27T14:03:31.635Z,17.70
2018-06-27T14:06:04.788Z,20.27
2018-06-27T14:08:38.048Z,14.63
2018-06-27T14:11:11.084Z,20.63
2018-06-27T14:13:44.166Z,16.00
2018-06-27T14:16:17.188Z,12.80
2018-06-27T14:18:51.163Z,21.97
2018-06-27T14:21:26.047Z,21.70
2018-06-27T14:23:59.239Z,17.20
2018-06-27T14:26:32.475Z,9.30
2018-06-27T14:29:05.754Z,13.33
2018-06-27T14:31:38.911Z,14.10
2018-06-27T14:34:12.051Z,14.60
2018-06-27T14:36:45.132Z,9.03
2018-06-27T14:39:18.375Z,18.70
2018-06-27T14:41:51.618Z,11.57
2018-06-27T14:44:24.895Z,14.70
2018-06-27T14:46:58.051Z,17.03
2018-06-27T14:49:31.935Z,15.00
2018-06-27T14:52:05.091Z,18.93
2018-06-27T14:54:38.156Z,40.37
2018-06-27T14:57:11.424Z,26.40
2018-06-27T14:59:44.570Z,11.43
2018-06-27T15:02:17.813Z,12.90
2018-06-27T15:04:50.864Z,9.87
2018-06-27T15:07:24.119Z,10.27
2018-06-27T15:09:57.359Z,11.07
2018-06-27T15:12:31.055Z,12.60
2018-06-27T15:15:04.208Z,12.37
2018-06-27T15:17:37.338Z,11.37
2018-06-27T15:20:10.516Z,25.60
2018-06-27T15:22:44.596Z,16.07
2018-06-27T15:25:17.905Z,11.20
2018-06-27T15:27:51.061Z,10.93
2018-06-27T15:30:24.242Z,16.13
2018-06-27T15:32:57.370Z,31.47
2018-06-27T15:35:30.486Z,18.70
2018-06-27T15:38:03.654Z,15.13
2018-06-27T15:40:36.659Z,14.53
2018-06-27T15:43:09.567Z,29.53
2018-06-27T15:45:42.742Z,20.87
2018-06-27T15:48:16.149Z,13.03
2018-06-27T15:50:49.258Z,12.40
2018-06-27T15:53:22.340Z,19.77
2018-06-27T15:55:55.383Z,17.40
2018-06-27T15:58:28.730Z,21.37
2018-06-27T16:01:02.076Z,17.20
2018-06-27T16:03:36.147Z,16.93
2018-06-27T16:06:09.300Z,17.37
2018-06-27T16:08:42.265Z,13.70
2018-06-27T16:11:15.563Z,14.03
2018-06-27T16:13:48.767Z,16.73
2018-06-27T16:16:21.835Z,14.80
2018-06-27T16:18:54.912Z,10.03
2018-06-27T16:21:28.068Z,13.77
2018-06-27T16:24:01.139Z,14.87
2018-06-27T16:26:34.313Z,17.43
2018-06-27T16:29:07.448Z,16.90
2018-06-27T16:31:40.752Z,11.77
2018-06-27T16:34:13.969Z,10.80
2018-06-27T16:36:47.319Z,5.93
2018-06-27T16:39:20.440Z,21.20
2018-06-27T16:41:53.577Z,17.27
2018-06-27T16:44:26.639Z,11.43
2018-06-27T16:46:59.660Z,24.03
2018-06-27T16:49:33.074Z,26.37
2018-06-27T16:52:06.338Z,23.07
2018-06-27T16:54:39.497Z,8.80
2018-06-27T16:57:12.629Z,21.33
2018-06-27T16:59:45.772Z,13.27
2018-06-27T17:02:18.938Z,13.07
2018-06-27T17:04:52.054Z,7.17
2018-06-27T17:07:25.220Z,12.20
2018-06-27T17:09:59.382Z,9.20
2018-06-27T17:12:32.472Z,11.43
2018-06-27T17:15:05.713Z,7.70
2018-06-27T17:17:38.927Z,9.77
2018-06-27T17:20:12.043Z,11.67
2018-06-27T17:22:45.051Z,10.40
2018-06-27T17:25:18.259Z,30.27
2018-06-27T17:27:51.463Z,29.17
2018-06-27T17:30:24.570Z,8.03
2018-06-27T17:32:57.731Z,8.83
2018-06-27T17:35:30.925Z,20.83
2018-06-27T17:38:04.088Z,10.30
2018-06-27T17:40:37.150Z,13.87
2018-06-27T17:43:10.547Z,10.00
2018-06-27T17:45:43.585Z,14.50
2018-06-27T17:48:16.635Z,19.40
2018-06-27T17:50:49.801Z,16.23
2018-06-27T17:53:22.867Z,12.60
2018-06-27T17:55:55.987Z,14.93
2018-06-27T17:58:29.040Z,34.37
2018-06-27T18:01:02.188Z,24.23
2018-06-27T18:03:35.214Z,29.50
2018-06-27T18:06:08.463Z,22.70
2018-06-27T18:08:41.703Z,15.40
2018-06-27T18:11:14.894Z,22.30
2018-06-27T18:13:47.976Z,25.70
2018-06-27T18:16:21.078Z,13.87
2018-06-27T18:18:54.116Z,18.70
2018-06-27T18:21:27.278Z,22.57
2018-06-27T18:24:00.418Z,16.70
2018-06-27T18:26:33.915Z,15.70
2018-06-27T18:29:07.171Z,29.93
2018-06-27T18:31:40.259Z,18.27
2018-06-27T18:34:13.311Z,12.07
2018-06-27T18:36:46.379Z,31.37
2018-06-27T18:39:19.504Z,19.90
2018-06-27T18:41:52.812Z,21.77
2018-06-27T18:44:25.862Z,23.23
2018-06-27T18:46:58.856Z,17.73
2018-06-27T18:49:31.947Z,18.67
2018-06-27T18:52:05.051Z,21.13
2018-06-27T18:54:38.137Z,23.73
2018-06-27T18:57:11.263Z,13.70
2018-06-27T18:59:44.318Z,19.90
2018-06-27T19:02:17.398Z,29.23
2018-06-27T19:04:50.507Z,16.60
2018-06-27T19:07:23.608Z,15.80
2018-06-27T19:09:56.664Z,26.30
2018-06-27T19:12:29.799Z,20.30
2018-06-27T19:15:02.938Z,24.00
2018-06-27T19:17:36.122Z,18.87
2018-06-27T19:20:09.603Z,18.97
2018-06-27T19:22:42.851Z,17.47
2018-06-27T19:25:15.922Z,13.63
2018-06-27T19:27:49.091Z,22.00
2018-06-27T19:30:26.640Z,17.63
2018-06-27T19:32:59.865Z,18.70
2018-06-27T19:35:33.074Z,20.63
2018-06-27T19:38:04.703Z,20.80
2018-06-27T19:40:37.690Z,14.73
2018-06-27T19:43:10.987Z,21.23
2018-06-27T19:45:44.134Z,16.23
2018-06-27T19:48:17.215Z,18.00
2018-06-27T19:50:50.587Z,13.40
2018-06-27T19:53:23.817Z,22.00
2018-06-27T19:55:58.265Z,15.37
2018-06-27T19:58:31.335Z,13.07
2018-06-27T20:01:04.375Z,22.50
2018-06-27T20:03:37.410Z,16.60
2018-06-27T20:06:10.543Z,15.03
2018-06-27T20:08:43.535Z,23.03
2018-06-27T20:11:16.710Z,14.00
2018-06-27T20:13:49.976Z,16.93
2018-06-27T20:16:23.113Z,14.73
2018-06-27T20:18:56.320Z,25.33
2018-06-27T20:21:29.484Z,22.40
2018-06-27T20:24:02.607Z,19.67
2018-06-27T20:26:35.731Z,13.80
2018-06-27T20:29:08.980Z,14.33
2018-06-27T20:31:42.018Z,15.00
2018-06-27T20:34:15.078Z,19.83
2018-06-27T20:36:48.275Z,14.37
2018-06-27T20:39:21.339Z,23.70
2018-06-27T20:41:54.572Z,23.60
2018-06-27T20:44:27.693Z,15.50
2018-06-27T20:46:59.212Z,17.50
2018-06-27T20:49:32.391Z,16.37
2018-06-27T20:52:05.529Z,14.20
2018-06-27T20:54:38.698Z,26.60
2018-06-27T20:57:11.867Z,24.03
2018-06-27T20:59:44.932Z,19.27
2018-06-27T21:02:19.819Z,18.23
2018-06-27T21:04:52.858Z,27.30
2018-06-27T21:07:26.032Z,16.83
2018-06-27T21:09:59.360Z,18.10
2018-06-27T21:12:32.403Z,43.47
2018-06-27T21:15:09.907Z,17.57
2018-06-27T21:17:43.254Z,21.37
2018-06-27T21:20:16.391Z,17.17
2018-06-27T21:22:49.463Z,17.63
2018-06-27T21:25:22.663Z,23.60
2018-06-27T21:27:55.797Z,16.80
2018-06-27T21:30:28.853Z,27.27
2018-06-27T21:33:01.943Z,16.83
2018-06-27T21:35:35.117Z,19.00
2018-06-27T21:38:08.421Z,17.80
2018-06-27T21:40:41.637Z,28.53
2018-06-27T21:43:15.020Z,21.97
2018-06-27T21:45:47.999Z,15.27
2018-06-27T21:48:21.079Z,21.97
2018-06-27T21:50:54.255Z,18.17
2018-06-27T21:53:27.471Z,22.73
2018-06-27T21:56:00.715Z,18.30
2018-06-27T21:58:33.843Z,31.97
2018-06-27T22:01:06.923Z,26.50
2018-06-27T22:03:40.000Z,26.27
2018-06-27T22:06:13.190Z,15.50
2018-06-27T22:08:46.286Z,25.80
2018-06-27T22:11:19.523Z,28.33
2018-06-27T22:13:52.723Z,19.50
2018-06-27T22:16:25.754Z,17.40
2018-06-27T22:18:58.933Z,21.83
2018-06-27T22:21:32.021Z,19.10
2018-06-27T22:24:05.338Z,31.87
2018-06-27T22:26:38.386Z,22.97
2018-06-27T22:29:11.528Z,24.17
2018-06-27T22:31:44.731Z,23.57
2018-06-27T22:34:17.787Z,21.30
2018-06-27T22:36:50.830Z,24.90
2018-06-27T22:39:23.972Z,20.33
2018-06-27T22:41:57.197Z,19.63
2018-06-27T22:44:30.191Z,17.03
2018-06-27T22:47:03.337Z,18.30
2018-06-27T22:49:36.576Z,24.03
2018-06-27T22:52:09.840Z,18.03
2018-06-27T22:54:43.084Z,26.43
2018-06-27T22:57:16.439Z,21.97
2018-06-27T22:59:49.609Z,30.97
2018-06-27T23:02:22.978Z,20.30
2018-06-27T23:04:56.298Z,28.40
2018-06-27T23:07:29.363Z,22.70
2018-06-27T23:10:01.283Z,25.87
2018-06-27T23:12:35.207Z,23.63
2018-06-27T23:15:08.599Z,28.37
2018-06-27T23:17:41.701Z,25.43
2018-06-27T23:20:14.850Z,27.90
2018-06-27T23:22:50.318Z,31.03
2018-06-27T23:25:23.524Z,26.93
2018-06-27T23:27:57.739Z,24.63
2018-06-27T23:30:30.891Z,22.83
2018-06-27T23:33:04.108Z,25.77
2018-06-27T23:35:37.527Z,25.63
2018-06-27T23:38:10.641Z,24.23
2018-06-27T23:40:43.775Z,27.80
2018-06-27T23:43:16.908Z,27.80
2018-06-27T23:45:49.971Z,39.67
2018-06-27T23:48:23.122Z,25.80
2018-06-27T23:50:56.246Z,40.33
2018-06-27T23:53:29.792Z,46.83
2018-06-27T23:56:03.643Z,32.57
2018-06-27T23:58:36.715Z,31.03
